sensor_id;sensor_type;location;lat;lon;timestamp;pressure;altitude;pressure_sealevel;temperature;humidity
37856;BME280;23694;43.274;26.924;2023-02-17T00:01:17;99635.97;;;2.84;70.22
37856;BME280;23694;43.274;26.924;2023-02-17T00:03:44;99651.59;;;2.81;70.90
37856;BME280;23694;43.274;26.924;2023-02-17T00:06:14;99646.94;;;2.94;70.29
37856;BME280;23694;43.274;26.924;2023-02-17T00:08:41;99642.59;;;2.95;70.20
37856;BME280;23694;43.274;26.924;2023-02-17T00:11:07;99638.59;;;2.83;70.42
37856;BME280;23694;43.274;26.924;2023-02-17T00:13:33;99641.88;;;2.90;70.50
37856;BME280;23694;43.274;26.924;2023-02-17T00:16:04;99634.03;;;2.93;69.92
37856;BME280;23694;43.274;26.924;2023-02-17T00:18:30;99636.47;;;2.99;69.41
37856;BME280;23694;43.274;26.924;2023-02-17T00:20:56;99638.16;;;3.00;69.71
37856;BME280;23694;43.274;26.924;2023-02-17T00:23:22;99632.28;;;2.93;69.76
37856;BME280;23694;43.274;26.924;2023-02-17T00:25:48;99627.50;;;2.79;70.40
37856;BME280;23694;43.274;26.924;2023-02-17T00:28:15;99612.22;;;2.70;70.62
37856;BME280;23694;43.274;26.924;2023-02-17T00:30:41;99616.53;;;2.70;71.18
37856;BME280;23694;43.274;26.924;2023-02-17T00:33:07;99610.94;;;2.51;71.58
37856;BME280;23694;43.274;26.924;2023-02-17T00:35:33;99609.81;;;2.63;71.62
37856;BME280;23694;43.274;26.924;2023-02-17T00:37:59;99620.91;;;2.68;71.00
37856;BME280;23694;43.274;26.924;2023-02-17T00:40:25;99613.38;;;2.57;71.87
37856;BME280;23694;43.274;26.924;2023-02-17T00:42:51;99605.56;;;2.59;71.52
37856;BME280;23694;43.274;26.924;2023-02-17T00:45:19;99612.97;;;2.74;71.31
37856;BME280;23694;43.274;26.924;2023-02-17T00:47:45;99604.97;;;2.49;71.73
37856;BME280;23694;43.274;26.924;2023-02-17T00:50:11;99599.56;;;2.58;71.93
37856;BME280;23694;43.274;26.924;2023-02-17T00:52:37;99606.88;;;2.76;71.58
37856;BME280;23694;43.274;26.924;2023-02-17T00:55:03;99607.53;;;2.84;70.99
37856;BME280;23694;43.274;26.924;2023-02-17T00:57:30;99604.00;;;2.87;71.04
37856;BME280;23694;43.274;26.924;2023-02-17T00:59:57;99595.03;;;2.68;71.00
37856;BME280;23694;43.274;26.924;2023-02-17T01:02:23;99593.81;;;2.81;70.88
37856;BME280;23694;43.274;26.924;2023-02-17T01:04:49;99588.41;;;2.90;70.56
37856;BME280;23694;43.274;26.924;2023-02-17T01:07:15;99587.28;;;2.99;70.13
37856;BME280;23694;43.274;26.924;2023-02-17T01:09:41;99576.59;;;2.80;70.46
37856;BME280;23694;43.274;26.924;2023-02-17T01:12:10;99581.47;;;2.91;70.82
37856;BME280;23694;43.274;26.924;2023-02-17T01:14:36;99570.69;;;2.75;71.07
37856;BME280;23694;43.274;26.924;2023-02-17T01:17:03;99562.72;;;2.82;70.71
37856;BME280;23694;43.274;26.924;2023-02-17T01:19:29;99569.44;;;2.90;70.16
37856;BME280;23694;43.274;26.924;2023-02-17T01:21:55;99563.88;;;3.03;69.83
37856;BME280;23694;43.274;26.924;2023-02-17T01:24:21;99573.03;;;2.84;69.84
37856;BME280;23694;43.274;26.924;2023-02-17T01:26:47;99571.09;;;2.92;70.09
37856;BME280;23694;43.274;26.924;2023-02-17T01:29:13;99565.03;;;2.93;69.91
37856;BME280;23694;43.274;26.924;2023-02-17T01:31:39;99571.28;;;2.84;69.91
37856;BME280;23694;43.274;26.924;2023-02-17T01:34:05;99572.03;;;2.55;71.40
37856;BME280;23694;43.274;26.924;2023-02-17T01:36:32;99556.72;;;2.48;71.71
37856;BME280;23694;43.274;26.924;2023-02-17T01:38:59;99564.69;;;2.40;71.86
37856;BME280;23694;43.274;26.924;2023-02-17T01:41:26;99560.94;;;2.52;71.69
37856;BME280;23694;43.274;26.924;2023-02-17T01:44:15;99561.09;;;2.46;72.00
37856;BME280;23694;43.274;26.924;2023-02-17T01:46:47;99558.50;;;2.46;72.24
37856;BME280;23694;43.274;26.924;2023-02-17T01:49:40;99554.91;;;2.17;73.15
37856;BME280;23694;43.274;26.924;2023-02-17T01:52:11;99549.91;;;2.11;73.59
37856;BME280;23694;43.274;26.924;2023-02-17T01:54:44;99544.94;;;2.38;72.38
37856;BME280;23694;43.274;26.924;2023-02-17T01:57:14;99540.16;;;2.55;71.61
37856;BME280;23694;43.274;26.924;2023-02-17T01:59:43;99542.63;;;2.27;72.48
37856;BME280;23694;43.274;26.924;2023-02-17T02:02:09;99543.56;;;2.23;72.69
37856;BME280;23694;43.274;26.924;2023-02-17T02:04:38;99544.00;;;2.40;72.28
37856;BME280;23694;43.274;26.924;2023-02-17T02:07:10;99537.06;;;2.08;73.18
37856;BME280;23694;43.274;26.924;2023-02-17T02:09:43;99536.25;;;2.06;73.35
37856;BME280;23694;43.274;26.924;2023-02-17T02:12:33;99547.25;;;2.14;73.25
37856;BME280;23694;43.274;26.924;2023-02-17T02:15:20;99542.88;;;2.16;72.81
37856;BME280;23694;43.274;26.924;2023-02-17T02:18:18;99535.72;;;2.28;72.76
37856;BME280;23694;43.274;26.924;2023-02-17T02:21:13;99538.28;;;1.92;74.24
37856;BME280;23694;43.274;26.924;2023-02-17T02:34:20;99521.75;;;2.01;73.82
37856;BME280;23694;43.274;26.924;2023-02-17T02:36:59;99531.19;;;2.02;73.74
37856;BME280;23694;43.274;26.924;2023-02-17T02:39:31;99529.19;;;2.13;73.44
37856;BME280;23694;43.274;26.924;2023-02-17T02:42:07;99522.28;;;2.13;73.19
37856;BME280;23694;43.274;26.924;2023-02-17T02:44:34;99523.59;;;2.30;72.36
37856;BME280;23694;43.274;26.924;2023-02-17T02:47:05;99524.41;;;2.32;72.29
37856;BME280;23694;43.274;26.924;2023-02-17T02:49:33;99519.69;;;2.13;73.40
37856;BME280;23694;43.274;26.924;2023-02-17T02:55:11;99525.59;;;2.18;73.24
37856;BME280;23694;43.274;26.924;2023-02-17T02:58:02;99518.41;;;1.96;73.66
37856;BME280;23694;43.274;26.924;2023-02-17T03:01:04;99523.97;;;2.14;73.59
37856;BME280;23694;43.274;26.924;2023-02-17T03:03:51;99525.75;;;2.12;73.69
37856;BME280;23694;43.274;26.924;2023-02-17T03:09:17;99527.09;;;2.27;72.97
37856;BME280;23694;43.274;26.924;2023-02-17T03:11:45;99523.88;;;2.19;72.48
37856;BME280;23694;43.274;26.924;2023-02-17T03:14:14;99529.19;;;1.76;74.23
37856;BME280;23694;43.274;26.924;2023-02-17T03:16:41;99533.16;;;1.90;74.19
37856;BME280;23694;43.274;26.924;2023-02-17T03:19:09;99512.28;;;2.00;73.85
37856;BME280;23694;43.274;26.924;2023-02-17T03:22:39;99536.44;;;1.99;74.27
37856;BME280;23694;43.274;26.924;2023-02-17T03:24:45;99535.28;;;2.10;74.05
37856;BME280;23694;43.274;26.924;2023-02-17T03:27:11;99525.53;;;2.21;73.11
37856;BME280;23694;43.274;26.924;2023-02-17T03:29:37;99525.31;;;2.29;72.52
37856;BME280;23694;43.274;26.924;2023-02-17T03:32:04;99529.50;;;2.35;72.28
37856;BME280;23694;43.274;26.924;2023-02-17T03:34:30;99523.88;;;2.19;72.42
37856;BME280;23694;43.274;26.924;2023-02-17T03:36:56;99527.94;;;2.28;71.99
37856;BME280;23694;43.274;26.924;2023-02-17T03:39:22;99538.47;;;1.84;74.58
37856;BME280;23694;43.274;26.924;2023-02-17T03:41:48;99528.66;;;2.00;73.40
37856;BME280;23694;43.274;26.924;2023-02-17T03:44:18;99522.56;;;1.66;74.33
37856;BME280;23694;43.274;26.924;2023-02-17T03:46:45;99525.81;;;1.74;74.55
37856;BME280;23694;43.274;26.924;2023-02-17T03:49:12;99516.06;;;1.48;75.78
37856;BME280;23694;43.274;26.924;2023-02-17T03:51:38;99522.16;;;1.45;75.86
37856;BME280;23694;43.274;26.924;2023-02-17T03:54:04;99518.53;;;1.54;75.78
37856;BME280;23694;43.274;26.924;2023-02-17T03:56:31;99523.41;;;1.26;77.42
37856;BME280;23694;43.274;26.924;2023-02-17T03:58:57;99523.59;;;1.18;77.85
37856;BME280;23694;43.274;26.924;2023-02-17T04:01:23;99512.94;;;0.93;79.00
37856;BME280;23694;43.274;26.924;2023-02-17T04:03:49;99531.31;;;1.18;78.99
37856;BME280;23694;43.274;26.924;2023-02-17T04:06:15;99525.03;;;1.32;77.99
37856;BME280;23694;43.274;26.924;2023-02-17T04:08:41;99521.44;;;1.39;77.78
37856;BME280;23694;43.274;26.924;2023-02-17T04:11:08;99523.28;;;1.34;77.85
37856;BME280;23694;43.274;26.924;2023-02-17T04:13:35;99517.75;;;1.50;76.92
37856;BME280;23694;43.274;26.924;2023-02-17T04:16:02;99533.13;;;1.55;76.81
37856;BME280;23694;43.274;26.924;2023-02-17T04:18:31;99525.31;;;1.58;76.12
37856;BME280;23694;43.274;26.924;2023-02-17T04:20:58;99538.88;;;1.68;75.71
37856;BME280;23694;43.274;26.924;2023-02-17T04:23:24;99533.06;;;1.58;75.58
37856;BME280;23694;43.274;26.924;2023-02-17T04:25:50;99546.56;;;1.69;76.02
37856;BME280;23694;43.274;26.924;2023-02-17T04:28:16;99539.78;;;1.65;76.37
37856;BME280;23694;43.274;26.924;2023-02-17T04:30:44;99548.44;;;1.63;75.81
37856;BME280;23694;43.274;26.924;2023-02-17T04:33:11;99539.69;;;1.70;75.39
37856;BME280;23694;43.274;26.924;2023-02-17T04:35:37;99539.50;;;1.77;75.08
37856;BME280;23694;43.274;26.924;2023-02-17T04:38:04;99549.22;;;1.66;75.70
37856;BME280;23694;43.274;26.924;2023-02-17T04:40:30;99550.81;;;1.72;75.15
37856;BME280;23694;43.274;26.924;2023-02-17T04:42:57;99544.22;;;1.58;75.46
37856;BME280;23694;43.274;26.924;2023-02-17T04:45:23;99548.72;;;1.50;76.14
37856;BME280;23694;43.274;26.924;2023-02-17T04:47:49;99547.00;;;1.51;76.36
37856;BME280;23694;43.274;26.924;2023-02-17T04:50:15;99561.31;;;1.64;75.82
37856;BME280;23694;43.274;26.924;2023-02-17T04:52:41;99545.06;;;1.61;75.55
37856;BME280;23694;43.274;26.924;2023-02-17T04:55:07;99547.66;;;1.59;76.10
37856;BME280;23694;43.274;26.924;2023-02-17T04:57:34;99553.56;;;1.64;75.42
37856;BME280;23694;43.274;26.924;2023-02-17T05:00:00;99552.44;;;1.76;75.12
37856;BME280;23694;43.274;26.924;2023-02-17T05:02:27;99541.78;;;1.89;74.09
37856;BME280;23694;43.274;26.924;2023-02-17T05:04:53;99540.44;;;1.73;74.81
37856;BME280;23694;43.274;26.924;2023-02-17T05:07:20;99535.25;;;1.75;74.28
37856;BME280;23694;43.274;26.924;2023-02-17T05:09:46;99541.69;;;1.96;73.67
37856;BME280;23694;43.274;26.924;2023-02-17T05:12:12;99538.16;;;1.98;73.44
37856;BME280;23694;43.274;26.924;2023-02-17T05:14:38;99549.25;;;2.03;73.34
37856;BME280;23694;43.274;26.924;2023-02-17T05:17:04;99536.25;;;2.06;73.39
37856;BME280;23694;43.274;26.924;2023-02-17T05:19:30;99539.72;;;2.39;71.85
37856;BME280;23694;43.274;26.924;2023-02-17T05:21:56;99538.34;;;2.59;70.05
37856;BME280;23694;43.274;26.924;2023-02-17T05:24:22;99535.50;;;2.69;69.81
37856;BME280;23694;43.274;26.924;2023-02-17T05:26:48;99527.41;;;2.81;69.05
37856;BME280;23694;43.274;26.924;2023-02-17T05:29:14;99529.13;;;3.41;67.57
37856;BME280;23694;43.274;26.924;2023-02-17T05:31:40;99524.84;;;3.96;64.21
37856;BME280;23694;43.274;26.924;2023-02-17T05:34:06;99518.25;;;4.12;62.79
37856;BME280;23694;43.274;26.924;2023-02-17T05:36:32;99523.19;;;4.20;62.30
37856;BME280;23694;43.274;26.924;2023-02-17T05:38:58;99527.66;;;4.41;60.96
37856;BME280;23694;43.274;26.924;2023-02-17T05:41:24;99527.78;;;4.63;60.62
37856;BME280;23694;43.274;26.924;2023-02-17T05:43:51;99525.69;;;4.98;59.83
37856;BME280;23694;43.274;26.924;2023-02-17T05:46:17;99516.84;;;5.27;59.03
37856;BME280;23694;43.274;26.924;2023-02-17T05:48:43;99519.47;;;5.49;58.13
37856;BME280;23694;43.274;26.924;2023-02-17T05:51:10;99522.84;;;5.72;57.35
37856;BME280;23694;43.274;26.924;2023-02-17T05:53:38;99532.53;;;5.92;56.92
37856;BME280;23694;43.274;26.924;2023-02-17T05:56:05;99539.28;;;6.18;55.89
37856;BME280;23694;43.274;26.924;2023-02-17T05:58:31;99541.09;;;6.36;54.96
37856;BME280;23694;43.274;26.924;2023-02-17T06:00:57;99540.56;;;6.50;54.46
37856;BME280;23694;43.274;26.924;2023-02-17T06:03:23;99551.09;;;6.67;54.21
37856;BME280;23694;43.274;26.924;2023-02-17T06:05:49;99554.09;;;6.79;53.72
37856;BME280;23694;43.274;26.924;2023-02-17T06:08:15;99540.47;;;6.92;53.24
37856;BME280;23694;43.274;26.924;2023-02-17T06:10:41;99557.72;;;6.75;53.68
37856;BME280;23694;43.274;26.924;2023-02-17T06:13:07;99545.88;;;6.88;52.65
37856;BME280;23694;43.274;26.924;2023-02-17T06:15:33;99549.44;;;6.85;52.91
37856;BME280;23694;43.274;26.924;2023-02-17T06:17:59;99551.22;;;6.85;52.87
37856;BME280;23694;43.274;26.924;2023-02-17T06:20:25;99542.34;;;6.89;52.88
37856;BME280;23694;43.274;26.924;2023-02-17T06:22:51;99551.59;;;6.96;52.71
37856;BME280;23694;43.274;26.924;2023-02-17T06:25:17;99546.59;;;6.91;52.96
37856;BME280;23694;43.274;26.924;2023-02-17T06:27:43;99541.91;;;6.79;52.95
37856;BME280;23694;43.274;26.924;2023-02-17T06:30:10;99540.25;;;6.97;52.15
37856;BME280;23694;43.274;26.924;2023-02-17T06:32:36;99536.06;;;7.13;51.94
37856;BME280;23694;43.274;26.924;2023-02-17T06:35:02;99533.13;;;7.40;50.81
37856;BME280;23694;43.274;26.924;2023-02-17T06:37:28;99544.25;;;7.81;49.65
37856;BME280;23694;43.274;26.924;2023-02-17T06:39:55;99551.59;;;8.09;48.56
37856;BME280;23694;43.274;26.924;2023-02-17T06:42:21;99545.09;;;8.17;48.36
37856;BME280;23694;43.274;26.924;2023-02-17T06:44:47;99545.09;;;8.17;47.99
37856;BME280;23694;43.274;26.924;2023-02-17T06:47:13;99545.94;;;7.82;49.63
37856;BME280;23694;43.274;26.924;2023-02-17T06:49:39;99542.31;;;8.03;49.17
37856;BME280;23694;43.274;26.924;2023-02-17T06:52:05;99528.66;;;8.33;48.40
37856;BME280;23694;43.274;26.924;2023-02-17T06:54:31;99531.75;;;8.23;49.03
37856;BME280;23694;43.274;26.924;2023-02-17T06:56:57;99526.00;;;8.34;47.77
37856;BME280;23694;43.274;26.924;2023-02-17T06:59:23;99531.88;;;8.56;48.15
37856;BME280;23694;43.274;26.924;2023-02-17T07:01:49;99536.13;;;8.23;49.38
37856;BME280;23694;43.274;26.924;2023-02-17T07:04:15;99536.78;;;8.09;49.93
37856;BME280;23694;43.274;26.924;2023-02-17T07:06:41;99524.06;;;8.20;49.50
37856;BME280;23694;43.274;26.924;2023-02-17T07:09:08;99522.06;;;8.25;49.73
37856;BME280;23694;43.274;26.924;2023-02-17T07:11:36;99520.16;;;8.12;50.49
37856;BME280;23694;43.274;26.924;2023-02-17T07:14:02;99522.34;;;8.02;50.41
37856;BME280;23694;43.274;26.924;2023-02-17T07:16:28;99517.16;;;8.02;50.54
37856;BME280;23694;43.274;26.924;2023-02-17T07:18:54;99509.84;;;8.09;50.28
37856;BME280;23694;43.274;26.924;2023-02-17T07:21:20;99502.88;;;8.09;49.71
37856;BME280;23694;43.274;26.924;2023-02-17T07:23:47;99518.19;;;8.34;49.21
37856;BME280;23694;43.274;26.924;2023-02-17T07:26:13;99515.75;;;8.48;49.19
37856;BME280;23694;43.274;26.924;2023-02-17T07:28:40;99519.19;;;8.66;48.37
37856;BME280;23694;43.274;26.924;2023-02-17T07:31:11;99512.94;;;8.86;47.48
37856;BME280;23694;43.274;26.924;2023-02-17T07:33:38;99515.59;;;9.02;47.05
37856;BME280;23694;43.274;26.924;2023-02-17T07:36:06;99521.19;;;9.11;46.52
37856;BME280;23694;43.274;26.924;2023-02-17T07:38:32;99520.78;;;9.19;46.49
37856;BME280;23694;43.274;26.924;2023-02-17T07:41:10;99506.63;;;9.23;46.21
37856;BME280;23694;43.274;26.924;2023-02-17T07:43:36;99520.63;;;9.53;45.37
37856;BME280;23694;43.274;26.924;2023-02-17T07:46:04;99526.53;;;9.73;44.47
37856;BME280;23694;43.274;26.924;2023-02-17T07:48:31;99525.09;;;9.51;45.02
37856;BME280;23694;43.274;26.924;2023-02-17T07:51:03;99512.53;;;9.58;44.65
37856;BME280;23694;43.274;26.924;2023-02-17T07:53:30;99519.97;;;9.66;45.20
37856;BME280;23694;43.274;26.924;2023-02-17T07:55:56;99527.47;;;10.03;44.06
37856;BME280;23694;43.274;26.924;2023-02-17T07:58:22;99528.97;;;10.07;44.58
37856;BME280;23694;43.274;26.924;2023-02-17T08:00:48;99523.09;;;10.34;43.68
37856;BME280;23694;43.274;26.924;2023-02-17T08:03:14;99525.34;;;10.56;43.04
37856;BME280;23694;43.274;26.924;2023-02-17T08:05:40;99524.47;;;10.41;43.65
37856;BME280;23694;43.274;26.924;2023-02-17T08:08:07;99530.56;;;10.56;43.68
37856;BME280;23694;43.274;26.924;2023-02-17T08:10:52;99520.69;;;10.75;43.20
37856;BME280;23694;43.274;26.924;2023-02-17T08:13:36;99523.38;;;10.59;42.94
37856;BME280;23694;43.274;26.924;2023-02-17T08:16:02;99532.53;;;10.52;43.57
37856;BME280;23694;43.274;26.924;2023-02-17T08:18:29;99528.22;;;10.51;43.71
37856;BME280;23694;43.274;26.924;2023-02-17T08:20:55;99539.56;;;10.52;44.04
37856;BME280;23694;43.274;26.924;2023-02-17T08:23:21;99542.22;;;10.80;43.52
37856;BME280;23694;43.274;26.924;2023-02-17T08:25:47;99544.84;;;10.80;43.51
37856;BME280;23694;43.274;26.924;2023-02-17T08:28:13;99544.53;;;10.70;44.07
37856;BME280;23694;43.274;26.924;2023-02-17T08:30:39;99543.34;;;10.76;44.05
37856;BME280;23694;43.274;26.924;2023-02-17T08:33:05;99550.84;;;10.96;43.29
37856;BME280;23694;43.274;26.924;2023-02-17T08:35:31;99557.00;;;10.81;43.32
37856;BME280;23694;43.274;26.924;2023-02-17T08:37:57;99550.78;;;10.54;43.48
37856;BME280;23694;43.274;26.924;2023-02-17T08:40:24;99547.44;;;10.66;43.63
37856;BME280;23694;43.274;26.924;2023-02-17T08:42:50;99559.50;;;10.38;43.58
37856;BME280;23694;43.274;26.924;2023-02-17T08:45:16;99557.94;;;10.20;43.95
37856;BME280;23694;43.274;26.924;2023-02-17T08:47:42;99567.41;;;10.23;44.16
37856;BME280;23694;43.274;26.924;2023-02-17T08:50:10;99577.59;;;10.11;44.66
37856;BME280;23694;43.274;26.924;2023-02-17T08:52:40;99570.00;;;10.23;44.41
37856;BME280;23694;43.274;26.924;2023-02-17T08:55:06;99559.19;;;10.29;43.93
37856;BME280;23694;43.274;26.924;2023-02-17T08:57:32;99553.69;;;10.17;44.19
37856;BME280;23694;43.274;26.924;2023-02-17T08:59:59;99557.91;;;10.36;44.11
37856;BME280;23694;43.274;26.924;2023-02-17T09:02:26;99565.06;;;10.78;43.80
37856;BME280;23694;43.274;26.924;2023-02-17T09:04:52;99564.03;;;10.95;43.23
37856;BME280;23694;43.274;26.924;2023-02-17T09:07:18;99562.56;;;11.05;42.64
37856;BME280;23694;43.274;26.924;2023-02-17T09:09:44;99572.72;;;10.81;43.82
37856;BME280;23694;43.274;26.924;2023-02-17T09:12:10;99557.22;;;10.92;43.34
37856;BME280;23694;43.274;26.924;2023-02-17T09:14:36;99565.63;;;10.83;43.83
37856;BME280;23694;43.274;26.924;2023-02-17T09:17:02;99567.66;;;11.22;43.13
37856;BME280;23694;43.274;26.924;2023-02-17T09:19:29;99562.50;;;11.35;42.78
37856;BME280;23694;43.274;26.924;2023-02-17T09:21:55;99562.66;;;11.46;42.21
37856;BME280;23694;43.274;26.924;2023-02-17T09:24:21;99572.88;;;11.79;41.75
37856;BME280;23694;43.274;26.924;2023-02-17T09:26:47;99553.66;;;11.50;42.17
37856;BME280;23694;43.274;26.924;2023-02-17T09:29:13;99569.31;;;11.37;42.58
37856;BME280;23694;43.274;26.924;2023-02-17T09:31:39;99569.31;;;11.80;41.60
37856;BME280;23694;43.274;26.924;2023-02-17T09:34:06;99564.13;;;11.93;41.56
37856;BME280;23694;43.274;26.924;2023-02-17T09:36:36;99574.22;;;12.26;41.15
37856;BME280;23694;43.274;26.924;2023-02-17T09:39:03;99584.50;;;12.43;40.27
37856;BME280;23694;43.274;26.924;2023-02-17T09:41:40;99571.50;;;12.27;40.72
37856;BME280;23694;43.274;26.924;2023-02-17T09:44:16;99575.31;;;11.82;41.50
37856;BME280;23694;43.274;26.924;2023-02-17T09:46:49;99575.38;;;11.95;41.29
37856;BME280;23694;43.274;26.924;2023-02-17T09:49:22;99574.22;;;11.99;40.99
37856;BME280;23694;43.274;26.924;2023-02-17T09:52:01;99572.75;;;11.95;41.50
37856;BME280;23694;43.274;26.924;2023-02-17T09:54:43;99572.41;;;12.14;40.93
37856;BME280;23694;43.274;26.924;2023-02-17T09:57:17;99570.84;;;12.51;40.03
37856;BME280;23694;43.274;26.924;2023-02-17T09:59:49;99573.31;;;12.66;39.51
37856;BME280;23694;43.274;26.924;2023-02-17T10:02:42;99560.19;;;12.79;38.92
37856;BME280;23694;43.274;26.924;2023-02-17T10:05:14;99561.34;;;12.88;38.43
37856;BME280;23694;43.274;26.924;2023-02-17T10:07:46;99565.06;;;13.11;38.58
37856;BME280;23694;43.274;26.924;2023-02-17T10:10:19;99558.81;;;12.99;39.04
37856;BME280;23694;43.274;26.924;2023-02-17T10:12:50;99551.09;;;13.23;38.41
37856;BME280;23694;43.274;26.924;2023-02-17T10:15:42;99554.09;;;13.42;37.91
37856;BME280;23694;43.274;26.924;2023-02-17T10:18:20;99556.44;;;13.09;39.02
37856;BME280;23694;43.274;26.924;2023-02-17T10:21:01;99533.94;;;13.30;37.74
37856;BME280;23694;43.274;26.924;2023-02-17T10:23:29;99532.78;;;13.21;37.88
37856;BME280;23694;43.274;26.924;2023-02-17T10:31:34;99523.16;;;13.46;37.04
37856;BME280;23694;43.274;26.924;2023-02-17T10:34:04;99525.34;;;13.52;36.74
37856;BME280;23694;43.274;26.924;2023-02-17T10:36:45;99525.78;;;13.46;36.58
37856;BME280;23694;43.274;26.924;2023-02-17T10:39:48;99519.91;;;13.42;36.47
37856;BME280;23694;43.274;26.924;2023-02-17T10:42:35;99515.94;;;13.73;36.67
37856;BME280;23694;43.274;26.924;2023-02-17T10:45:05;99523.63;;;13.76;36.08
37856;BME280;23694;43.274;26.924;2023-02-17T10:47:36;99511.41;;;13.75;35.74
37856;BME280;23694;43.274;26.924;2023-02-17T10:50:05;99508.59;;;13.53;36.41
37856;BME280;23694;43.274;26.924;2023-02-17T10:52:37;99510.78;;;13.72;35.98
37856;BME280;23694;43.274;26.924;2023-02-17T10:57:59;99505.84;;;14.39;35.50
37856;BME280;23694;43.274;26.924;2023-02-17T11:00:27;99509.59;;;14.23;35.02
37856;BME280;23694;43.274;26.924;2023-02-17T11:02:53;99495.16;;;13.81;35.54
37856;BME280;23694;43.274;26.924;2023-02-17T11:11:28;99488.59;;;13.87;34.90
37856;BME280;23694;43.274;26.924;2023-02-17T11:16:34;99470.38;;;14.08;34.23
37856;BME280;23694;43.274;26.924;2023-02-17T11:19:01;99480.03;;;13.72;34.72
37856;BME280;23694;43.274;26.924;2023-02-17T11:21:28;99459.31;;;13.91;34.53
37856;BME280;23694;43.274;26.924;2023-02-17T11:23:58;99457.91;;;13.75;34.60
37856;BME280;23694;43.274;26.924;2023-02-17T11:26:27;99456.78;;;13.90;34.31
37856;BME280;23694;43.274;26.924;2023-02-17T11:28:54;99458.00;;;13.97;34.41
37856;BME280;23694;43.274;26.924;2023-02-17T11:31:31;99460.78;;;14.07;34.23
37856;BME280;23694;43.274;26.924;2023-02-17T11:33:57;99470.25;;;14.09;34.27
37856;BME280;23694;43.274;26.924;2023-02-17T11:36:28;99465.59;;;14.13;34.09
37856;BME280;23694;43.274;26.924;2023-02-17T11:38:55;99464.16;;;14.09;34.12
37856;BME280;23694;43.274;26.924;2023-02-17T11:41:22;99459.00;;;14.31;33.98
37856;BME280;23694;43.274;26.924;2023-02-17T11:43:56;99458.22;;;14.53;33.79
37856;BME280;23694;43.274;26.924;2023-02-17T11:46:33;99451.88;;;14.67;33.44
37856;BME280;23694;43.274;26.924;2023-02-17T11:49:23;99445.66;;;14.90;32.49
37856;BME280;23694;43.274;26.924;2023-02-17T11:51:54;99443.41;;;14.97;31.64
37856;BME280;23694;43.274;26.924;2023-02-17T11:54:35;99439.31;;;14.93;31.51
37856;BME280;23694;43.274;26.924;2023-02-17T12:00:15;99445.31;;;15.17;30.64
37856;BME280;23694;43.274;26.924;2023-02-17T12:05:53;99451.66;;;15.37;30.45
37856;BME280;23694;43.274;26.924;2023-02-17T12:11:11;99457.41;;;15.31;29.95
37856;BME280;23694;43.274;26.924;2023-02-17T12:14:07;99448.63;;;15.41;29.78
37856;BME280;23694;43.274;26.924;2023-02-17T12:17:05;99458.94;;;15.44;30.65
37856;BME280;23694;43.274;26.924;2023-02-17T12:25:10;99450.91;;;15.46;29.87
37856;BME280;23694;43.274;26.924;2023-02-17T12:27:47;99459.75;;;15.56;29.80
37856;BME280;23694;43.274;26.924;2023-02-17T12:35:56;99442.88;;;15.47;29.89
37856;BME280;23694;43.274;26.924;2023-02-17T12:38:30;99451.06;;;15.22;30.40
37856;BME280;23694;43.274;26.924;2023-02-17T12:46:08;99445.19;;;14.63;30.81
37856;BME280;23694;43.274;26.924;2023-02-17T12:48:36;99438.94;;;14.64;30.95
37856;BME280;23694;43.274;26.924;2023-02-17T12:51:08;99443.00;;;14.56;31.35
37856;BME280;23694;43.274;26.924;2023-02-17T12:53:58;99438.00;;;14.29;31.46
37856;BME280;23694;43.274;26.924;2023-02-17T12:56:46;99443.22;;;14.18;31.36
37856;BME280;23694;43.274;26.924;2023-02-17T12:59:18;99431.03;;;14.28;31.48
37856;BME280;23694;43.274;26.924;2023-02-17T13:01:53;99441.09;;;14.23;31.59
37856;BME280;23694;43.274;26.924;2023-02-17T13:04:21;99450.28;;;14.18;31.49
37856;BME280;23694;43.274;26.924;2023-02-17T13:06:53;99454.88;;;14.27;31.23
37856;BME280;23694;43.274;26.924;2023-02-17T13:09:35;99444.19;;;14.17;31.76
37856;BME280;23694;43.274;26.924;2023-02-17T13:14:58;99432.00;;;14.27;31.46
37856;BME280;23694;43.274;26.924;2023-02-17T13:17:28;99435.66;;;14.03;31.75
37856;BME280;23694;43.274;26.924;2023-02-17T13:22:37;99434.97;;;14.23;32.00
37856;BME280;23694;43.274;26.924;2023-02-17T13:25:04;99434.25;;;14.21;32.08
37856;BME280;23694;43.274;26.924;2023-02-17T13:27:33;99435.91;;;14.11;32.06
37856;BME280;23694;43.274;26.924;2023-02-17T13:30:26;99437.97;;;14.18;31.90
37856;BME280;23694;43.274;26.924;2023-02-17T13:33:25;99432.31;;;14.12;31.96
37856;BME280;23694;43.274;26.924;2023-02-17T13:35:52;99434.13;;;14.11;31.67
37856;BME280;23694;43.274;26.924;2023-02-17T13:38:29;99424.34;;;13.89;32.40
37856;BME280;23694;43.274;26.924;2023-02-17T13:41:01;99429.56;;;13.78;32.49
37856;BME280;23694;43.274;26.924;2023-02-17T13:43:29;99436.97;;;13.73;33.09
37856;BME280;23694;43.274;26.924;2023-02-17T13:46:03;99430.06;;;13.59;32.96
37856;BME280;23694;43.274;26.924;2023-02-17T13:48:32;99431.13;;;13.57;33.08
37856;BME280;23694;43.274;26.924;2023-02-17T13:51:03;99433.75;;;13.57;33.35
37856;BME280;23694;43.274;26.924;2023-02-17T13:53:39;99430.84;;;13.49;33.21
37856;BME280;23694;43.274;26.924;2023-02-17T13:56:11;99438.72;;;13.25;33.82
37856;BME280;23694;43.274;26.924;2023-02-17T13:58:48;99448.28;;;13.26;33.75
37856;BME280;23694;43.274;26.924;2023-02-17T14:01:16;99436.81;;;13.27;33.87
37856;BME280;23694;43.274;26.924;2023-02-17T14:03:51;99441.78;;;13.19;33.68
37856;BME280;23694;43.274;26.924;2023-02-17T14:06:37;99439.13;;;13.06;33.97
37856;BME280;23694;43.274;26.924;2023-02-17T14:09:29;99451.13;;;13.10;33.70
37856;BME280;23694;43.274;26.924;2023-02-17T14:12:00;99446.91;;;13.08;33.79
37856;BME280;23694;43.274;26.924;2023-02-17T14:14:30;99454.81;;;13.08;34.09